Time;durP1;ratioP1;P1;durP2;ratioP2;P2;SDS_P1;SDS_P2;PMS_P1;PMS_P2;Temp;Humidity;BMP_temperature;BMP_pressure;BME280_temperature;BME280_humidity;BME280_pressure;Samples;Min_cycle;Max_cycle;Signal;HPM_P1;HPM_P2
2021/11/05 00:01:33;;;;;;;63.60;41.17;;;9.40;96.60;;;;;;5054263;28;20441;-67
2021/11/05 00:04:01;;;;;;;58.93;40.83;;;9.40;96.60;;;;;;5054207;28;20449;-67
2021/11/05 00:06:29;;;;;;;65.80;41.60;;;9.40;96.60;;;;;;5054120;28;20473;-67
2021/11/05 00:08:55;;;;;;;66.00;41.73;;;9.40;96.50;;;;;;5053691;28;20469;-67
2021/11/05 00:11:23;;;;;;;63.87;40.80;;;9.40;96.50;;;;;;5054141;28;20449;-67
2021/11/05 00:13:49;;;;;;;60.50;40.77;;;9.30;96.60;;;;;;5054029;28;20467;-67
2021/11/05 00:16:16;;;;;;;66.63;41.20;;;9.30;96.80;;;;;;5054041;28;20449;-67
2021/11/05 00:18:43;;;;;;;70.97;44.63;;;9.30;96.90;;;;;;5053558;28;20983;-68
2021/11/05 00:21:11;;;;;;;66.40;41.73;;;9.30;97.00;;;;;;5053798;28;20493;-67
2021/11/05 00:23:37;;;;;;;72.70;43.50;;;9.30;97.20;;;;;;5053824;28;20446;-67
2021/11/05 00:26:04;;;;;;;70.17;42.23;;;9.30;97.40;;;;;;5053912;28;20449;-67
2021/11/05 00:28:31;;;;;;;72.67;41.83;;;9.40;97.50;;;;;;5053761;28;20541;-67
2021/11/05 00:30:58;;;;;;;70.20;42.47;;;9.30;97.50;;;;;;5052582;28;20457;-67
2021/11/05 00:33:25;;;;;;;60.60;39.53;;;9.30;97.70;;;;;;5053667;28;20446;-67
2021/11/05 00:35:52;;;;;;;66.03;40.07;;;9.40;97.70;;;;;;5053656;28;20522;-67
2021/11/05 00:38:20;;;;;;;68.83;42.40;;;9.30;97.70;;;;;;5053984;28;20480;-68
2021/11/05 00:40:47;;;;;;;68.50;40.00;;;9.30;97.90;;;;;;5053444;28;20487;-67
2021/11/05 00:43:14;;;;;;;72.70;44.73;;;9.20;98.10;;;;;;5053580;28;20440;-67
2021/11/05 00:45:40;;;;;;;80.60;46.10;;;9.20;98.30;;;;;;5053523;28;20446;-67
2021/11/05 00:48:07;;;;;;;80.17;43.60;;;9.20;98.50;;;;;;5053471;28;20495;-67
2021/11/05 00:50:34;;;;;;;84.83;46.57;;;9.30;98.60;;;;;;5053558;28;20448;-67
2021/11/05 00:53:01;;;;;;;85.17;45.13;;;9.30;98.70;;;;;;5053424;28;20812;-67
2021/11/05 00:55:29;;;;;;;86.40;47.57;;;9.30;99.10;;;;;;5053263;28;20863;-67
2021/11/05 00:57:56;;;;;;;84.57;47.40;;;9.30;98.80;;;;;;5053280;28;20454;-67
2021/11/05 01:00:23;;;;;;;90.53;48.27;;;9.30;98.90;;;;;;5053687;28;20496;-67
2021/11/05 01:02:50;;;;;;;87.93;49.17;;;9.30;99.00;;;;;;5053350;28;20460;-67
2021/11/05 01:05:17;;;;;;;89.83;48.17;;;9.20;99.00;;;;;;5053175;28;20932;-67
2021/11/05 01:07:43;;;;;;;90.20;49.07;;;9.20;99.00;;;;;;5052997;28;20866;-67
2021/11/05 01:10:11;;;;;;;99.20;48.30;;;9.20;99.20;;;;;;5052940;28;20458;-67
2021/11/05 01:12:39;;;;;;;92.10;47.67;;;9.20;99.30;;;;;;5053344;28;20460;-67
2021/11/05 01:15:07;;;;;;;88.03;46.53;;;9.20;99.30;;;;;;5053591;28;20446;-67
2021/11/05 01:17:35;;;;;;;90.13;46.27;;;9.20;99.30;;;;;;5053138;28;20446;-67
2021/11/05 01:20:01;;;;;;;88.40;46.63;;;9.20;99.40;;;;;;5053127;28;20531;-67
2021/11/05 01:22:28;;;;;;;94.83;46.30;;;9.20;99.30;;;;;;5052933;28;20461;-67
2021/11/05 01:24:55;;;;;;;105.60;48.10;;;9.20;99.20;;;;;;5053120;28;20473;-67
2021/11/05 01:27:22;;;;;;;80.47;44.60;;;9.20;99.30;;;;;;5052843;28;20943;-67
2021/11/05 01:29:50;;;;;;;87.07;44.70;;;9.20;99.30;;;;;;5052777;28;20841;-67
2021/11/05 01:32:17;;;;;;;89.33;43.10;;;9.10;99.20;;;;;;5053144;28;20503;-67
2021/11/05 01:34:44;;;;;;;87.23;43.50;;;9.20;99.20;;;;;;5052839;28;20453;-67
2021/11/05 01:37:11;;;;;;;93.50;44.60;;;9.20;99.30;;;;;;5053048;28;20437;-67
2021/11/05 01:39:37;;;;;;;83.10;43.90;;;9.10;99.20;;;;;;5052923;28;20840;-67
2021/11/05 01:42:05;;;;;;;80.20;42.03;;;9.20;99.40;;;;;;5055783;28;20487;-67
2021/11/05 01:44:31;;;;;;;81.20;43.47;;;9.20;99.50;;;;;;5056510;28;20460;-67
2021/11/05 01:47:01;;;;;;;79.57;43.90;;;9.20;99.50;;;;;;5057653;28;20449;-67
2021/11/05 01:49:28;;;;;;;80.23;40.10;;;9.20;99.40;;;;;;5056373;28;21014;-67
2021/11/05 01:51:55;;;;;;;79.00;38.17;;;9.30;99.40;;;;;;5056717;28;20469;-67
2021/11/05 01:54:22;;;;;;;87.17;43.17;;;9.30;99.50;;;;;;5056672;28;20491;-67
2021/11/05 01:56:50;;;;;;;76.10;39.57;;;9.30;99.30;;;;;;5056611;28;20528;-67
2021/11/05 01:59:25;;;;;;;55.77;32.80;;;9.40;99.20;;;;;;5056195;28;21001;-67
2021/11/05 02:01:53;;;;;;;56.27;33.90;;;9.40;98.90;;;;;;5056433;28;20489;-67
2021/11/05 02:04:22;;;;;;;57.60;29.93;;;9.40;98.80;;;;;;5056177;28;20951;-67
2021/11/05 02:06:50;;;;;;;51.73;30.87;;;9.40;98.70;;;;;;5056102;28;20817;-67
2021/11/05 02:09:19;;;;;;;47.43;28.23;;;9.40;98.60;;;;;;5056331;28;20469;-67
2021/11/05 02:11:47;;;;;;;47.80;28.80;;;9.50;98.60;;;;;;5056845;28;20448;-67
2021/11/05 02:14:16;;;;;;;47.70;28.73;;;9.50;98.60;;;;;;5056266;28;20452;-67
2021/11/05 02:16:45;;;;;;;51.40;31.00;;;9.60;98.50;;;;;;5056293;28;20452;-67
2021/11/05 02:19:14;;;;;;;52.00;29.90;;;9.60;98.30;;;;;;5056112;28;20465;-67
2021/11/05 02:21:44;;;;;;;52.43;27.70;;;9.60;98.20;;;;;;5056054;28;20540;-67
2021/11/05 02:24:11;;;;;;;43.17;26.37;;;9.60;98.10;;;;;;5056321;28;20444;-67
2021/11/05 02:26:39;;;;;;;43.70;24.07;;;9.50;97.90;;;;;;5056085;28;20477;-67
2021/11/05 02:29:06;;;;;;;42.43;26.67;;;9.50;98.10;;;;;;5055885;28;20489;-67
2021/11/05 02:31:33;;;;;;;45.70;26.57;;;9.50;98.10;;;;;;5055964;28;20448;-67
2021/11/05 02:34:00;;;;;;;51.10;27.63;;;9.50;98.20;;;;;;5056114;28;20430;-67
2021/11/05 02:36:28;;;;;;;47.43;26.70;;;9.40;98.10;;;;;;5055903;28;20445;-67
2021/11/05 02:38:57;;;;;;;38.33;23.10;;;9.40;98.20;;;;;;5055728;28;20474;-67
2021/11/05 02:41:24;;;;;;;40.77;23.90;;;9.40;98.20;;;;;;5055381;28;21017;-67
2021/11/05 02:43:52;;;;;;;42.20;24.07;;;9.30;98.20;;;;;;5055485;28;20970;-67
2021/11/05 02:46:19;;;;;;;42.47;24.03;;;9.30;98.30;;;;;;5055620;28;20446;-67
2021/11/05 02:48:46;;;;;;;43.03;23.70;;;9.20;98.50;;;;;;5055544;28;20475;-67
2021/11/05 02:51:13;;;;;;;35.60;21.50;;;9.20;98.50;;;;;;5055555;28;20442;-67
2021/11/05 02:53:40;;;;;;;39.50;22.73;;;9.20;98.60;;;;;;5054455;28;20806;-67
2021/11/05 02:56:08;;;;;;;38.80;23.57;;;9.10;98.50;;;;;;5055456;28;20449;-67
2021/11/05 02:58:35;;;;;;;41.67;22.93;;;9.10;98.60;;;;;;5055046;28;20919;-67
2021/11/05 03:01:02;;;;;;;44.00;23.00;;;9.00;98.80;;;;;;5055614;28;20474;-67
2021/11/05 03:03:29;;;;;;;46.00;23.00;;;9.00;98.80;;;;;;5055385;28;20446;-67
2021/11/05 03:05:55;;;;;;;53.60;24.40;;;9.00;99.00;;;;;;5055192;28;20445;-67
2021/11/05 03:08:22;;;;;;;47.27;24.87;;;9.00;99.00;;;;;;5055131;28;20457;-67
2021/11/05 03:10:49;;;;;;;46.23;24.73;;;9.10;99.20;;;;;;5055190;28;20449;-67
2021/11/05 03:13:18;;;;;;;40.37;25.13;;;9.10;99.10;;;;;;5055150;28;20445;-67
2021/11/05 03:15:45;;;;;;;44.53;25.50;;;9.20;99.20;;;;;;5055167;28;20442;-67
2021/11/05 03:18:15;;;;;;;43.70;26.10;;;9.20;99.10;;;;;;5055055;28;20461;-67
2021/11/05 03:20:42;;;;;;;38.70;24.17;;;9.10;99.10;;;;;;5055126;28;20473;-67
2021/11/05 03:23:09;;;;;;;41.27;24.83;;;9.20;99.00;;;;;;5055040;28;20440;-67
2021/11/05 03:25:35;;;;;;;42.33;26.00;;;9.20;98.80;;;;;;5054718;28;20437;-67
2021/11/05 03:28:02;;;;;;;43.70;26.43;;;9.20;98.70;;;;;;5054576;28;20948;-67
2021/11/05 03:30:32;;;;;;;49.50;27.13;;;9.20;98.70;;;;;;5054393;28;20939;-67
2021/11/05 03:32:59;;;;;;;44.77;25.53;;;9.20;98.70;;;;;;5054733;28;20472;-67
2021/11/05 03:35:26;;;;;;;43.87;26.23;;;9.20;98.80;;;;;;5054842;28;20468;-67
2021/11/05 03:37:53;;;;;;;47.27;26.80;;;9.30;98.80;;;;;;5054644;28;20461;-68
2021/11/05 03:40:20;;;;;;;46.00;25.77;;;9.30;98.80;;;;;;5054277;28;20954;-67
2021/11/05 03:42:49;;;;;;;46.07;26.73;;;9.30;98.60;;;;;;5054794;28;20449;-67
2021/11/05 03:45:16;;;;;;;40.03;25.23;;;9.30;98.50;;;;;;5054633;28;20481;-67
2021/11/05 03:47:44;;;;;;;45.80;25.27;;;9.30;98.40;;;;;;5054505;28;20446;-67
2021/11/05 03:50:11;;;;;;;42.17;24.53;;;9.30;98.30;;;;;;5054411;28;20488;-67
2021/11/05 03:52:39;;;;;;;42.07;26.47;;;9.30;98.30;;;;;;5054394;28;20829;-67
2021/11/05 03:55:07;;;;;;;40.17;24.17;;;9.30;98.30;;;;;;5053958;28;20453;-67
2021/11/05 03:57:34;;;;;;;39.10;23.60;;;9.30;98.70;;;;;;5054150;28;20467;-67
2021/11/05 04:00:01;;;;;;;31.80;21.63;;;9.30;98.20;;;;;;5053873;28;20472;-67
2021/11/05 04:02:28;;;;;;;36.63;23.37;;;9.30;98.20;;;;;;5054148;28;20481;-67
2021/11/05 04:04:56;;;;;;;34.10;21.63;;;9.20;98.20;;;;;;5053919;28;20457;-67
2021/11/05 04:07:23;;;;;;;34.77;21.97;;;9.30;98.20;;;;;;5054121;28;20441;-67
2021/11/05 04:09:50;;;;;;;28.80;20.20;;;9.30;98.00;;;;;;5054074;28;20473;-67
2021/11/05 04:12:17;;;;;;;31.00;22.50;;;9.20;97.90;;;;;;5054049;28;20452;-67
2021/11/05 04:14:44;;;;;;;28.10;20.40;;;9.30;97.90;;;;;;5054031;28;20500;-67
2021/11/05 04:17:13;;;;;;;33.87;22.00;;;9.20;97.80;;;;;;5053953;28;20446;-67
2021/11/05 04:19:39;;;;;;;32.60;21.13;;;9.20;97.70;;;;;;5053831;28;20469;-67
2021/11/05 04:22:08;;;;;;;33.50;23.00;;;9.20;97.70;;;;;;5053808;28;20478;-67
2021/11/05 04:24:35;;;;;;;32.77;22.90;;;9.20;97.70;;;;;;5053815;28;20445;-67
2021/11/05 04:27:02;;;;;;;35.97;24.47;;;9.20;97.70;;;;;;5054044;28;20454;-67
2021/11/05 04:29:30;;;;;;;37.83;24.93;;;9.20;97.70;;;;;;5053611;28;20508;-67
2021/11/05 04:31:57;;;;;;;39.30;24.20;;;9.20;97.80;;;;;;5053436;28;20923;-67
2021/11/05 04:34:26;;;;;;;38.57;27.10;;;9.20;97.60;;;;;;5053835;28;20441;-67
2021/11/05 04:36:53;;;;;;;44.83;28.50;;;9.20;97.70;;;;;;5053639;28;20819;-67
2021/11/05 04:39:24;;;;;;;47.90;30.97;;;9.20;97.80;;;;;;5053200;28;20983;-67
2021/11/05 04:41:51;;;;;;;50.53;32.57;;;9.10;97.80;;;;;;5053538;28;20508;-67
2021/11/05 04:44:18;;;;;;;50.73;31.50;;;9.20;97.90;;;;;;5053580;28;20452;-67
2021/11/05 04:46:46;;;;;;;51.30;32.53;;;9.10;97.70;;;;;;5053497;28;20442;-66
2021/11/05 04:49:13;;;;;;;44.53;30.93;;;9.10;97.80;;;;;;5053120;28;20469;-67
2021/11/05 04:51:40;;;;;;;42.10;30.80;;;9.10;97.80;;;;;;5053382;28;20959;-67
2021/11/05 04:54:07;;;;;;;46.40;32.40;;;9.10;97.70;;;;;;5053446;28;20454;-67
2021/11/05 04:56:35;;;;;;;44.03;30.67;;;9.10;97.80;;;;;;5053416;28;20446;-67
2021/11/05 04:59:03;;;;;;;51.70;32.07;;;9.10;97.80;;;;;;5053314;28;20461;-67
2021/11/05 05:01:30;;;;;;;46.53;34.00;;;9.10;97.80;;;;;;5053222;28;20477;-67
2021/11/05 05:03:56;;;;;;;44.30;32.40;;;9.00;97.80;;;;;;5053331;28;20446;-67
2021/11/05 05:06:23;;;;;;;44.80;30.27;;;9.00;97.80;;;;;;5053311;28;20445;-67
2021/11/05 05:08:50;;;;;;;45.57;29.90;;;9.00;97.80;;;;;;5053210;28;20481;-67
2021/11/05 05:11:17;;;;;;;43.50;30.83;;;9.00;97.70;;;;;;5053300;28;20503;-67
2021/11/05 05:13:45;;;;;;;44.73;30.80;;;9.00;97.80;;;;;;5053203;28;20450;-67
2021/11/05 05:16:12;;;;;;;40.17;29.67;;;9.00;97.80;;;;;;5054452;28;20475;-67
2021/11/05 05:18:39;;;;;;;44.20;32.13;;;9.00;97.80;;;;;;5057230;28;20471;-67
2021/11/05 05:21:05;;;;;;;49.10;32.00;;;8.90;97.60;;;;;;5057202;28;20430;-67
2021/11/05 05:23:32;;;;;;;44.80;32.20;;;8.90;97.60;;;;;;5057190;28;20460;-67
2021/11/05 05:25:59;;;;;;;46.83;31.87;;;8.80;97.60;;;;;;5057111;28;20950;-67
2021/11/05 05:28:28;;;;;;;47.13;32.53;;;8.80;97.50;;;;;;5057165;28;20477;-68
2021/11/05 05:30:56;;;;;;;49.00;32.07;;;8.80;97.60;;;;;;5057018;28;20515;-65
2021/11/05 05:33:23;;;;;;;51.57;32.67;;;8.70;97.70;;;;;;5057002;28;20818;-66
2021/11/05 05:35:50;;;;;;;44.63;30.80;;;8.70;97.70;;;;;;5057049;28;20426;-66
2021/11/05 05:38:16;;;;;;;45.60;31.40;;;8.70;97.70;;;;;;5057499;28;20468;-66
2021/11/05 05:40:43;;;;;;;42.43;30.73;;;8.60;97.80;;;;;;5057155;28;20449;-66
2021/11/05 05:43:10;;;;;;;46.40;31.60;;;8.60;98.10;;;;;;5056980;28;20465;-66
2021/11/05 05:45:37;;;;;;;49.93;31.40;;;8.70;97.90;;;;;;5057414;28;20815;-65
2021/11/05 05:48:05;;;;;;;41.97;30.07;;;8.70;97.80;;;;;;5057539;28;20429;-66
2021/11/05 05:50:32;;;;;;;41.27;31.20;;;8.70;97.80;;;;;;5056822;28;20433;-66
2021/11/05 05:52:59;;;;;;;37.77;28.87;;;8.70;97.70;;;;;;5056702;28;20502;-66
2021/11/05 05:55:25;;;;;;;46.40;28.27;;;8.60;97.60;;;;;;5056651;28;20430;-66
2021/11/05 05:57:52;;;;;;;35.77;27.47;;;8.60;97.80;;;;;;5056525;28;20801;-66
2021/11/05 06:00:19;;;;;;;39.27;27.50;;;8.60;97.80;;;;;;5056551;28;20445;-66
2021/11/05 06:02:46;;;;;;;36.07;27.30;;;8.60;98.10;;;;;;5056453;28;20825;-66
2021/11/05 06:05:15;;;;;;;46.33;28.43;;;8.60;98.20;;;;;;5056428;28;20539;-66
2021/11/05 06:07:42;;;;;;;40.03;28.97;;;8.60;98.10;;;;;;5056154;28;20899;-66
2021/11/05 06:10:10;;;;;;;38.10;28.23;;;8.70;98.10;;;;;;5056465;28;20603;-66
2021/11/05 06:12:36;;;;;;;35.13;27.00;;;8.70;98.00;;;;;;5056316;28;20452;-66
2021/11/05 06:15:04;;;;;;;46.97;28.10;;;8.70;97.80;;;;;;5056301;28;20445;-66
2021/11/05 06:17:31;;;;;;;38.77;27.60;;;8.70;97.80;;;;;;5055921;28;20456;-66
2021/11/05 06:19:58;;;;;;;33.63;26.90;;;8.70;97.80;;;;;;5056054;28;20473;-66
2021/11/05 06:22:26;;;;;;;36.57;26.30;;;8.80;97.90;;;;;;5055766;28;20488;-66
2021/11/05 06:24:54;;;;;;;31.93;26.03;;;8.80;97.90;;;;;;5055822;28;20449;-66
2021/11/05 06:27:20;;;;;;;34.03;24.47;;;8.80;97.80;;;;;;5055025;28;20457;-66
2021/11/05 06:29:47;;;;;;;32.40;24.20;;;8.80;97.70;;;;;;5055426;28;20484;-66
2021/11/05 06:32:14;;;;;;;32.53;26.40;;;8.80;97.60;;;;;;5055979;28;20446;-66
2021/11/05 06:34:41;;;;;;;30.17;24.47;;;8.80;97.60;;;;;;5055904;28;20452;-66
2021/11/05 06:37:08;;;;;;;35.23;23.10;;;8.90;97.60;;;;;;5055809;28;20447;-66
2021/11/05 06:39:36;;;;;;;30.83;23.47;;;8.90;97.50;;;;;;5055786;28;20477;-66
2021/11/05 06:42:03;;;;;;;31.80;22.87;;;9.00;97.50;;;;;;5055698;28;20485;-66
2021/11/05 06:44:30;;;;;;;29.97;24.00;;;9.00;97.30;;;;;;5055680;28;20507;-66
2021/11/05 06:46:57;;;;;;;31.50;24.70;;;9.00;97.30;;;;;;5055653;28;20808;-66
2021/11/05 06:49:24;;;;;;;26.17;23.40;;;9.00;97.00;;;;;;5055590;28;20465;-66
2021/11/05 06:51:54;;;;;;;29.90;24.30;;;9.00;97.00;;;;;;5055555;28;20449;-66
2021/11/05 06:54:21;;;;;;;32.80;25.90;;;9.00;97.10;;;;;;5055116;28;20849;-66
2021/11/05 06:56:50;;;;;;;30.37;24.80;;;9.00;97.20;;;;;;5055170;28;20437;-66
2021/11/05 06:59:17;;;;;;;32.80;27.00;;;9.00;97.10;;;;;;5055251;28;20462;-65
2021/11/05 07:01:44;;;;;;;36.67;26.37;;;9.00;97.00;;;;;;5055301;28;20466;-66
2021/11/05 07:04:11;;;;;;;29.57;25.80;;;9.00;97.10;;;;;;5055286;28;20456;-66
2021/11/05 07:06:44;;;;;;;33.00;28.07;;;9.00;97.00;;;;;;5055365;28;20426;-65
2021/11/05 07:09:11;;;;;;;37.23;27.23;;;9.00;97.10;;;;;;5055229;28;20477;-65
2021/11/05 07:11:38;;;;;;;36.20;27.67;;;9.00;97.10;;;;;;5055158;28;20532;-67
2021/11/05 07:14:07;;;;;;;35.60;26.50;;;9.00;97.10;;;;;;5055101;28;20449;-67
2021/11/05 07:16:34;;;;;;;37.20;28.33;;;9.00;97.00;;;;;;5054853;28;20452;-67
2021/11/05 07:57:35;;;;;;;29.93;24.87;;;9.40;96.80;;;;;;5011980;28;20793;-76
2021/11/05 08:00:02;;;;;;;30.77;26.30;;;9.40;96.90;;;;;;5010460;28;20621;-76
2021/11/05 08:02:28;;;;;;;30.90;26.00;;;9.50;96.90;;;;;;5010303;28;20428;-76
2021/11/05 08:04:55;;;;;;;33.97;25.57;;;9.50;96.50;;;;;;5010537;28;20439;-76
2021/11/05 08:07:23;;;;;;;29.03;24.40;;;9.60;96.50;;;;;;5010558;28;20440;-76
2021/11/05 08:09:50;;;;;;;26.80;22.20;;;9.70;96.60;;;;;;5010751;28;20439;-76
2021/11/05 08:12:16;;;;;;;24.73;22.20;;;9.70;96.50;;;;;;5010841;28;20935;-77
2021/11/05 08:14:45;;;;;;;22.53;20.33;;;9.70;96.40;;;;;;5011239;28;20451;-78
2021/11/05 08:17:12;;;;;;;22.87;19.90;;;9.80;96.30;;;;;;5010938;28;20435;-78
2021/11/05 08:19:39;;;;;;;20.57;18.47;;;9.80;96.20;;;;;;5010796;28;20487;-78
2021/11/05 08:22:06;;;;;;;23.50;19.77;;;9.80;96.30;;;;;;5010825;28;20463;-78
2021/11/05 08:24:33;;;;;;;21.80;19.40;;;9.80;96.30;;;;;;5010731;28;20482;-79
2021/11/05 08:27:00;;;;;;;20.83;18.57;;;9.80;96.40;;;;;;5010470;28;20432;-79
2021/11/05 08:29:27;;;;;;;23.20;19.77;;;9.80;96.60;;;;;;5010062;28;20456;-79
2021/11/05 08:31:55;;;;;;;22.17;19.80;;;9.90;96.90;;;;;;5002920;28;20483;-79
2021/11/05 08:34:22;;;;;;;22.53;20.13;;;10.00;96.20;;;;;;4997237;28;20432;-78
2021/11/05 08:36:48;;;;;;;26.03;20.23;;;10.10;96.20;;;;;;4996947;28;20801;-78
2021/11/05 08:39:15;;;;;;;21.10;18.67;;;10.10;96.20;;;;;;4996920;28;20414;-78
2021/11/05 08:41:42;;;;;;;20.00;16.43;;;10.20;96.10;;;;;;4996883;28;20488;-78
2021/11/05 08:44:10;;;;;;;19.30;17.27;;;10.30;95.60;;;;;;4997047;28;20452;-78
2021/11/05 08:46:37;;;;;;;17.90;16.00;;;10.30;94.80;;;;;;4996903;28;20510;-77
2021/11/05 08:49:10;;;;;;;18.40;16.40;;;10.20;94.70;;;;;;4996699;28;20936;-78
2021/11/05 08:51:40;;;;;;;20.23;18.10;;;10.20;94.80;;;;;;4996816;28;20475;-78
2021/11/05 08:54:07;;;;;;;19.67;17.57;;;10.10;94.80;;;;;;4996434;28;20433;-78
2021/11/05 08:56:34;;;;;;;18.80;16.90;;;10.10;94.80;;;;;;4996693;28;20444;-78
2021/11/05 08:59:01;;;;;;;20.30;18.20;;;10.10;94.90;;;;;;4996649;28;20452;-78
2021/11/05 09:01:28;;;;;;;26.13;17.70;;;10.10;95.10;;;;;;4996464;28;20487;-80
2021/11/05 09:03:55;;;;;;;20.17;18.10;;;10.20;95.20;;;;;;4996614;28;20441;-79
2021/11/05 09:06:23;;;;;;;28.10;17.60;;;10.30;95.10;;;;;;4996605;28;20539;-79
2021/11/05 09:08:52;;;;;;;20.07;17.40;;;10.30;95.00;;;;;;4998182;28;20452;-80
2021/11/05 09:11:19;;;;;;;19.90;16.70;;;10.40;94.90;;;;;;4999070;28;20476;-80
2021/11/05 09:13:46;;;;;;;19.57;17.23;;;10.40;94.70;;;;;;4999783;28;20459;-80
2021/11/05 09:16:13;;;;;;;22.67;18.17;;;10.40;94.40;;;;;;4998060;28;20502;-79
2021/11/05 09:18:41;;;;;;;21.57;18.20;;;10.50;94.60;;;;;;4999200;28;20445;-79
2021/11/05 09:21:08;;;;;;;16.63;14.60;;;10.60;94.70;;;;;;4996967;28;20496;-78
2021/11/05 09:23:37;;;;;;;17.87;15.47;;;10.80;94.50;;;;;;4997314;28;20444;-78
2021/11/05 09:26:04;;;;;;;18.30;16.13;;;10.80;94.40;;;;;;4997036;28;20433;-78
2021/11/05 09:28:31;;;;;;;22.23;15.07;;;11.00;94.60;;;;;;4996764;28;20460;-78
2021/11/05 09:30:58;;;;;;;18.60;14.43;;;11.20;94.40;;;;;;4997737;28;20464;-83
2021/11/05 09:33:25;;;;;;;14.30;12.87;;;11.30;93.60;;;;;;4998067;28;20487;-82
2021/11/05 09:35:52;;;;;;;17.63;14.03;;;11.30;92.90;;;;;;4998099;28;20460;-82
2021/11/05 09:38:19;;;;;;;19.33;14.03;;;11.40;93.30;;;;;;4997900;28;20506;-82
2021/11/05 09:40:50;;;;;;;16.40;13.23;;;11.40;93.10;;;;;;4997600;28;20495;-82
2021/11/05 09:43:17;;;;;;;17.30;13.17;;;11.40;92.80;;;;;;4996865;28;20928;-83
2021/11/05 09:45:44;;;;;;;15.70;12.70;;;11.50;93.00;;;;;;4997625;28;20447;-82
2021/11/05 09:48:10;;;;;;;16.50;12.27;;;11.50;92.60;;;;;;4997433;28;20900;-82
2021/11/05 09:50:38;;;;;;;15.67;13.63;;;11.50;92.60;;;;;;4997760;28;20468;-81
2021/11/05 09:53:05;;;;;;;16.83;11.97;;;11.50;92.50;;;;;;4997441;28;20444;-81
2021/11/05 09:55:35;;;;;;;14.10;12.47;;;11.50;92.50;;;;;;4997713;28;20413;-81
2021/11/05 09:58:03;;;;;;;14.90;12.13;;;11.60;92.60;;;;;;4997531;28;20954;-81
2021/11/05 10:00:30;;;;;;;12.73;11.43;;;11.60;92.50;;;;;;4997994;28;20484;-82
2021/11/05 10:02:57;;;;;;;14.93;13.50;;;11.60;92.70;;;;;;4998439;28;20456;-82
2021/11/05 10:05:24;;;;;;;13.63;12.23;;;11.70;92.90;;;;;;4998001;28;20460;-82
2021/11/05 10:07:53;;;;;;;14.53;12.27;;;11.80;92.90;;;;;;4999216;28;20939;-82
2021/11/05 10:10:25;;;;;;;11.80;10.70;;;11.80;92.40;;;;;;4998963;28;20464;-82
2021/11/05 10:13:02;;;;;;;14.37;11.87;;;11.80;92.20;;;;;;4998658;28;20463;-83
2021/11/05 10:15:38;;;;;;;13.30;10.57;;;11.90;92.30;;;;;;4996980;28;20443;-82
2021/11/05 10:18:07;;;;;;;17.53;11.77;;;12.00;92.10;;;;;;4996256;28;20508;-82
2021/11/05 10:20:34;;;;;;;12.20;10.47;;;12.10;92.00;;;;;;4996060;28;20483;-82
2021/11/05 10:23:03;;;;;;;12.40;10.30;;;12.20;91.50;;;;;;4996453;28;20443;-82
2021/11/05 10:25:33;;;;;;;14.00;9.87;;;12.30;91.70;;;;;;4996365;28;20460;-83
2021/11/05 10:28:19;;;;;;;15.20;11.50;;;12.40;91.70;;;;;;4996843;28;20507;-83
2021/11/05 10:31:10;;;;;;;15.83;11.80;;;12.60;91.70;;;;;;4997078;28;20464;-83
2021/11/05 10:33:40;;;;;;;12.33;10.90;;;13.10;91.80;;;;;;4994848;28;20540;-83
2021/11/05 10:36:09;;;;;;;12.80;9.50;;;13.30;90.00;;;;;;4997685;28;20881;-83
2021/11/05 10:38:38;;;;;;;12.83;9.83;;;13.40;88.90;;;;;;4999610;28;20452;-83
2021/11/05 10:41:07;;;;;;;11.20;10.03;;;13.50;89.70;;;;;;4999360;28;20493;-83
2021/11/05 10:43:41;;;;;;;14.20;10.53;;;13.40;87.80;;;;;;5000765;28;20962;-83
2021/11/05 10:46:23;;;;;;;13.07;11.80;;;13.40;89.00;;;;;;5001083;28;20782;-83
2021/11/05 10:48:50;;;;;;;14.90;11.07;;;13.50;89.40;;;;;;5000377;28;20432;-83
2021/11/05 10:51:21;;;;;;;12.47;10.80;;;13.70;87.50;;;;;;4999094;28;20472;-83
2021/11/05 10:53:48;;;;;;;18.50;10.93;;;13.80;87.80;;;;;;4997835;28;20455;-83
2021/11/05 10:56:17;;;;;;;13.83;10.77;;;14.00;87.80;;;;;;4995629;28;20452;-83
2021/11/05 10:58:52;;;;;;;11.07;10.07;;;14.10;87.20;;;;;;4996677;28;20436;-83
2021/11/05 11:01:23;;;;;;;8.83;7.80;;;14.10;85.90;;;;;;4996107;28;20499;-83
2021/11/05 11:03:51;;;;;;;9.23;7.20;;;14.10;84.30;;;;;;4996443;28;20449;-82
2021/11/05 11:06:20;;;;;;;13.47;8.50;;;13.80;83.60;;;;;;4998306;28;20432;-82
2021/11/05 11:08:48;;;;;;;12.10;8.00;;;13.50;84.40;;;;;;4998003;28;20429;-83
2021/11/05 11:11:21;;;;;;;12.70;9.53;;;13.30;86.20;;;;;;4996711;28;20464;-82
2021/11/05 11:13:49;;;;;;;8.93;8.03;;;13.20;88.60;;;;;;4995892;28;20448;-83
2021/11/05 11:16:23;;;;;;;9.40;8.50;;;13.30;88.20;;;;;;4995853;28;20487;-83
2021/11/05 11:18:57;;;;;;;16.93;10.47;;;13.30;87.80;;;;;;4996845;28;20451;-83
2021/11/05 11:21:29;;;;;;;11.00;7.87;;;13.50;88.30;;;;;;4996440;28;20856;-82
2021/11/05 11:23:57;;;;;;;9.63;8.27;;;13.70;88.20;;;;;;4995637;28;20857;-82
2021/11/05 11:26:24;;;;;;;11.77;8.10;;;14.00;86.40;;;;;;4995852;28;20423;-83
2021/11/05 11:28:51;;;;;;;10.40;7.77;;;14.00;84.90;;;;;;4995092;28;20457;-83
2021/11/05 11:31:19;;;;;;;15.33;7.70;;;14.30;84.10;;;;;;4995081;28;20476;-82
2021/11/05 11:33:50;;;;;;;9.43;6.70;;;14.70;82.70;;;;;;4995196;28;20450;-82
2021/11/05 11:36:19;;;;;;;8.13;4.67;;;15.20;81.20;;;;;;4994229;28;20840;-82
2021/11/05 11:38:49;;;;;;;7.87;5.30;;;15.30;77.80;;;;;;4994498;28;20451;-82
2021/11/05 11:41:17;;;;;;;10.80;5.30;;;15.40;78.90;;;;;;4994868;28;20495;-82
2021/11/05 11:43:44;;;;;;;9.23;4.73;;;15.80;78.30;;;;;;4995033;28;20471;-82
2021/11/05 11:46:11;;;;;;;8.20;4.90;;;16.10;74.60;;;;;;4994261;28;20936;-83
2021/11/05 11:48:43;;;;;;;8.70;5.23;;;16.10;74.30;;;;;;4994927;28;20459;-82
2021/11/05 11:51:30;;;;;;;10.30;4.90;;;15.90;74.70;;;;;;4994701;28;20466;-82
2021/11/05 11:53:59;;;;;;;12.37;4.87;;;15.80;76.10;;;;;;4994414;28;20848;-82
2021/11/05 11:56:34;;;;;;;6.43;5.00;;;15.80;76.30;;;;;;4994750;28;20468;-81
2021/11/05 11:59:03;;;;;;;8.57;5.30;;;15.90;76.10;;;;;;4993934;28;20451;-82
2021/11/05 12:01:32;;;;;;;11.07;4.90;;;15.70;74.80;;;;;;4993881;28;20480;-82
2021/11/05 12:04:02;;;;;;;5.27;4.80;;;15.50;76.80;;;;;;4994282;28;20491;-82
2021/11/05 12:07:03;;;;;;;6.97;5.20;;;15.30;77.90;;;;;;4996429;28;20459;-82
2021/11/05 12:09:33;;;;;;;7.30;4.70;;;15.10;78.20;;;;;;4998726;28;20944;-82
2021/11/05 12:12:34;;;;;;;8.43;4.97;;;14.90;79.70;;;;;;4998891;28;20448;-82
2021/11/05 12:15:17;;;;;;;8.23;5.40;;;14.80;81.00;;;;;;4998909;28;20803;-82
2021/11/05 12:18:09;;;;;;;7.97;5.60;;;14.70;81.90;;;;;;4998943;28;20436;-82
2021/11/05 12:20:39;;;;;;;6.30;5.23;;;14.50;81.10;;;;;;5000082;28;20460;-82
2021/11/05 12:23:17;;;;;;;8.10;5.07;;;14.40;81.90;;;;;;4999659;28;20464;-83
2021/11/05 12:25:47;;;;;;;11.47;5.60;;;14.50;82.80;;;;;;4999702;28;20448;-82
2021/11/05 12:28:16;;;;;;;9.63;5.80;;;14.50;83.30;;;;;;5000259;28;20444;-82
2021/11/05 12:30:43;;;;;;;9.57;5.33;;;14.50;83.20;;;;;;4999760;28;20472;-82
2021/11/05 12:33:29;;;;;;;17.50;5.90;;;14.40;82.70;;;;;;5000226;28;20444;-81
2021/11/05 12:35:57;;;;;;;9.27;5.20;;;14.30;83.80;;;;;;5000590;28;20523;-82
2021/11/05 12:38:24;;;;;;;12.37;5.03;;;14.30;84.60;;;;;;5000794;28;20459;-82
2021/11/05 12:41:00;;;;;;;7.67;4.47;;;14.30;84.60;;;;;;5000970;28;20475;-82
2021/11/05 12:43:41;;;;;;;10.17;4.27;;;14.40;85.40;;;;;;5000568;28;20456;-82
2021/11/05 12:46:11;;;;;;;8.33;3.90;;;14.30;84.20;;;;;;5001336;28;20472;-82
2021/11/05 12:48:53;;;;;;;9.13;4.77;;;14.30;85.10;;;;;;5001831;28;20440;-82
2021/11/05 12:51:22;;;;;;;10.77;4.93;;;14.30;84.30;;;;;;5002064;28;20492;-82
2021/11/05 12:54:06;;;;;;;9.53;4.40;;;14.20;84.30;;;;;;5001014;28;20808;-82
2021/11/05 12:56:36;;;;;;;7.00;4.20;;;14.10;84.20;;;;;;5002620;28;20543;-82
2021/11/05 12:59:09;;;;;;;12.07;4.40;;;14.10;83.70;;;;;;4999748;28;20439;-82
2021/11/05 13:01:36;;;;;;;6.67;4.40;;;14.10;85.10;;;;;;4998698;28;20480;-82
2021/11/05 13:04:09;;;;;;;7.03;5.03;;;14.10;84.30;;;;;;4999320;28;20444;-82
2021/11/05 13:06:38;;;;;;;5.97;3.70;;;14.00;85.60;;;;;;4998387;28;20451;-82
2021/11/05 13:09:23;;;;;;;5.33;3.70;;;14.00;86.00;;;;;;4998298;28;20456;-82
2021/11/05 13:12:09;;;;;;;8.80;4.23;;;13.90;86.40;;;;;;4998653;28;20490;-82
2021/11/05 13:14:44;;;;;;;11.77;4.70;;;14.00;87.00;;;;;;4999310;28;20433;-82
2021/11/05 13:17:19;;;;;;;11.57;4.30;;;14.00;86.30;;;;;;4999227;28;20802;-84
2021/11/05 13:19:52;;;;;;;7.83;4.77;;;14.10;86.20;;;;;;4998568;28;20420;-83
2021/11/05 13:22:21;;;;;;;7.17;4.33;;;13.90;85.60;;;;;;4999486;28;20472;-83